Time;durP1;ratioP1;P1;durP2;ratioP2;P2;SDS_P1;SDS_P2;PMS_P1;PMS_P2;Temp;Humidity;BMP_temperature;BMP_pressure;BME280_temperature;BME280_humidity;BME280_pressure;Samples;Min_cycle;Max_cycle;Signal;HPM_P1;HPM_P2
2023/03/09 00:00:51;;;;;;;15.13;11.18;;;4.90;99.90;;;;;;5023357;28;20215;-93
2023/03/09 00:03:20;;;;;;;13.15;9.98;;;4.90;99.90;;;;;;5057063;28;20200;-93
2023/03/09 00:05:58;;;;;;;16.35;10.88;;;4.90;99.90;;;;;;5022432;28;20283;-92
2023/03/09 00:08:25;;;;;;;13.90;9.52;;;4.90;99.90;;;;;;5044786;28;20199;-93
2023/03/09 00:10:52;;;;;;;15.57;10.30;;;4.90;99.90;;;;;;5043031;28;20207;-93
2023/03/09 00:13:19;;;;;;;14.48;10.55;;;5.00;99.90;;;;;;5043197;28;20252;-92
2023/03/09 00:15:49;;;;;;;12.25;8.75;;;5.00;99.90;;;;;;5042645;28;20226;-93
2023/03/09 00:18:20;;;;;;;12.90;9.48;;;5.00;99.90;;;;;;5042815;28;20188;-94
2023/03/09 00:20:46;;;;;;;13.63;9.48;;;5.00;99.90;;;;;;5042667;28;20237;-92
2023/03/09 00:23:12;;;;;;;12.65;9.75;;;5.00;99.90;;;;;;5042922;28;20183;-93
2023/03/09 00:25:38;;;;;;;14.50;10.43;;;5.00;99.90;;;;;;5042986;28;20484;-92
2023/03/09 00:28:05;;;;;;;13.13;9.32;;;5.00;99.90;;;;;;5041777;28;20295;-93
2023/03/09 00:30:31;;;;;;;12.90;9.48;;;5.00;99.90;;;;;;5042565;28;20172;-91
2023/03/09 00:33:00;;;;;;;12.57;9.02;;;5.00;99.90;;;;;;5042970;28;20192;-93
2023/03/09 00:35:28;;;;;;;13.23;9.07;;;5.00;99.90;;;;;;5042218;28;20214;-92
2023/03/09 00:37:56;;;;;;;13.55;9.07;;;5.00;99.90;;;;;;5043123;28;20407;-93
2023/03/09 00:40:24;;;;;;;12.30;8.87;;;5.00;99.90;;;;;;5058934;28;20199;-90
2023/03/09 00:42:52;;;;;;;12.75;8.77;;;5.00;99.90;;;;;;5042551;28;20180;-92
2023/03/09 00:45:21;;;;;;;11.35;8.70;;;5.00;99.90;;;;;;5042444;28;20176;-91
2023/03/09 00:47:50;;;;;;;9.63;7.30;;;5.00;99.90;;;;;;5042884;28;20180;-93
2023/03/09 00:50:20;;;;;;;12.23;8.70;;;5.00;99.90;;;;;;5042609;28;20195;-92
2023/03/09 00:52:46;;;;;;;11.90;8.35;;;4.90;99.90;;;;;;5023119;28;20246;-91
2023/03/09 00:55:12;;;;;;;11.47;8.80;;;4.90;99.90;;;;;;5006026;28;20250;-91
2023/03/09 00:57:40;;;;;;;9.43;7.40;;;4.90;99.90;;;;;;5026156;28;20843;-92
2023/03/09 01:00:07;;;;;;;11.80;8.43;;;4.90;99.90;;;;;;5042313;28;20183;-93
2023/03/09 01:02:35;;;;;;;11.35;8.20;;;4.90;99.90;;;;;;5042286;28;20196;-92
2023/03/09 01:05:04;;;;;;;10.30;7.90;;;5.00;99.90;;;;;;5042262;28;20181;-91
2023/03/09 01:07:32;;;;;;;12.05;8.43;;;4.90;99.90;;;;;;5042046;28;20422;-91
2023/03/09 01:10:01;;;;;;;10.00;7.50;;;5.00;99.90;;;;;;5041956;28;20230;-92
2023/03/09 01:12:27;;;;;;;12.43;8.93;;;4.90;99.90;;;;;;5042221;28;20191;-92
2023/03/09 01:14:56;;;;;;;9.48;7.57;;;5.00;99.90;;;;;;5058277;28;20261;-92
2023/03/09 01:17:23;;;;;;;12.30;8.82;;;4.90;99.90;;;;;;5042001;28;20218;-92
2023/03/09 01:19:49;;;;;;;11.73;8.55;;;5.00;99.90;;;;;;5076113;28;20172;-92
2023/03/09 01:22:19;;;;;;;13.40;8.73;;;5.00;99.90;;;;;;5025576;28;20253;-92
2023/03/09 01:24:47;;;;;;;10.25;8.10;;;5.00;99.90;;;;;;5042022;28;20194;-92
2023/03/09 01:27:14;;;;;;;9.57;7.78;;;4.90;99.90;;;;;;5025606;28;20630;-92
2023/03/09 01:29:42;;;;;;;13.05;8.18;;;5.00;99.90;;;;;;5058407;28;20199;-92
2023/03/09 01:32:10;;;;;;;10.77;7.73;;;4.90;99.90;;;;;;5025514;28;20262;-91
2023/03/09 01:34:36;;;;;;;12.15;8.85;;;4.90;99.90;;;;;;5041440;28;20499;-92
2023/03/09 01:37:08;;;;;;;13.20;8.02;;;5.00;99.90;;;;;;5041911;28;20180;-92
2023/03/09 01:39:35;;;;;;;12.05;8.05;;;5.00;99.90;;;;;;5047789;28;20205;-92
2023/03/09 01:42:01;;;;;;;10.97;7.43;;;5.00;99.90;;;;;;5082248;28;20171;-92
2023/03/09 01:44:26;;;;;;;11.20;8.53;;;5.00;99.90;;;;;;5047963;28;20452;-92
2023/03/09 01:46:56;;;;;;;11.60;8.60;;;4.90;99.90;;;;;;5048551;28;20481;-91
2023/03/09 01:49:34;;;;;;;11.93;8.73;;;5.00;99.90;;;;;;5048510;28;20426;-91
2023/03/09 01:52:18;;;;;;;10.77;7.82;;;5.00;99.90;;;;;;5050330;28;20247;-92
2023/03/09 01:55:03;;;;;;;11.98;9.25;;;5.00;99.90;;;;;;5012605;28;20204;-91
2023/03/09 01:57:36;;;;;;;12.75;8.35;;;4.90;99.90;;;;;;5028478;28;20273;-92
2023/03/09 02:00:15;;;;;;;12.48;9.00;;;4.90;99.90;;;;;;5028547;28;20161;-91
2023/03/09 02:03:16;;;;;;;12.57;8.52;;;4.90;99.90;;;;;;5042859;28;20208;-91
2023/03/09 02:06:13;;;;;;;11.98;7.93;;;4.90;99.90;;;;;;5042212;28;20199;-92
2023/03/09 02:08:57;;;;;;;10.63;7.53;;;4.90;99.90;;;;;;5027098;28;20330;-91
2023/03/09 02:11:23;;;;;;;13.70;9.30;;;4.90;99.90;;;;;;5032274;28;20189;-91
2023/03/09 02:13:51;;;;;;;12.27;8.83;;;4.90;99.90;;;;;;5084732;28;20596;-93
2023/03/09 02:16:20;;;;;;;11.10;7.75;;;4.90;99.90;;;;;;5069117;28;20405;-93
2023/03/09 02:18:47;;;;;;;11.82;8.43;;;4.90;99.90;;;;;;5054161;28;20188;-91
2023/03/09 02:21:22;;;;;;;14.18;9.35;;;5.00;99.90;;;;;;5064128;28;20207;-91
2023/03/09 02:24:10;;;;;;;12.52;9.02;;;5.00;99.90;;;;;;5044411;28;20184;-91
2023/03/09 02:27:04;;;;;;;12.52;9.02;;;5.00;99.90;;;;;;5044859;28;20208;-92
2023/03/09 02:29:30;;;;;;;11.68;8.75;;;5.00;99.90;;;;;;5040897;28;20188;-91
2023/03/09 02:31:58;;;;;;;12.80;9.02;;;5.00;99.90;;;;;;5045011;28;20228;-91
2023/03/09 02:34:28;;;;;;;12.57;9.60;;;5.00;99.90;;;;;;5044820;28;20208;-91
2023/03/09 02:36:55;;;;;;;16.30;10.73;;;5.00;99.90;;;;;;5026563;28;20215;-92
2023/03/09 02:39:33;;;;;;;15.98;10.75;;;5.00;99.90;;;;;;5030879;28;20184;-91
2023/03/09 02:41:59;;;;;;;14.32;9.63;;;5.00;99.90;;;;;;5044640;28;20516;-93
2023/03/09 02:44:27;;;;;;;14.85;9.90;;;5.00;99.90;;;;;;5018617;28;20190;-92
2023/03/09 02:46:55;;;;;;;13.80;9.45;;;5.00;99.90;;;;;;5048005;28;20202;-91
2023/03/09 02:49:22;;;;;;;14.27;10.05;;;5.00;99.90;;;;;;5046795;28;20315;-91
2023/03/09 02:51:48;;;;;;;15.57;9.57;;;5.00;99.90;;;;;;5044152;28;20275;-90
2023/03/09 02:54:15;;;;;;;19.10;11.32;;;5.00;99.90;;;;;;5028040;28;20538;-91
2023/03/09 02:56:42;;;;;;;13.60;9.35;;;5.00;99.90;;;;;;5044589;28;20166;-91
2023/03/09 02:59:11;;;;;;;15.23;10.55;;;5.00;99.90;;;;;;5061209;28;20173;-92
2023/03/09 03:01:37;;;;;;;17.73;10.88;;;5.00;99.90;;;;;;5061056;28;20196;-92
2023/03/09 03:04:05;;;;;;;16.17;10.50;;;5.00;99.90;;;;;;5033389;28;20180;-91
2023/03/09 03:06:33;;;;;;;16.20;10.43;;;5.00;99.90;;;;;;5044391;28;20454;-91
2023/03/09 03:08:58;;;;;;;18.37;11.60;;;5.00;99.90;;;;;;5027602;28;20196;-93
2023/03/09 03:11:25;;;;;;;18.08;11.95;;;5.00;99.90;;;;;;5044504;28;20507;-90
2023/03/09 03:13:51;;;;;;;18.27;12.15;;;5.00;99.90;;;;;;5060514;28;20176;-91
2023/03/09 03:16:19;;;;;;;17.40;10.57;;;5.00;99.90;;;;;;5044764;28;20168;-91
2023/03/09 03:18:45;;;;;;;17.60;11.70;;;5.00;99.90;;;;;;5040316;28;20261;-91
2023/03/09 03:21:11;;;;;;;18.97;12.07;;;5.00;99.90;;;;;;5040759;28;20477;-91
2023/03/09 03:23:40;;;;;;;19.95;12.52;;;5.00;99.90;;;;;;5057058;28;20524;-91
2023/03/09 03:26:08;;;;;;;20.45;12.10;;;5.00;99.90;;;;;;5040603;28;20556;-92
2023/03/09 03:28:36;;;;;;;19.52;12.00;;;5.00;99.90;;;;;;5040966;28;20275;-92
2023/03/09 03:31:09;;;;;;;19.70;11.82;;;5.00;99.90;;;;;;5040497;28;20192;-91
2023/03/09 03:33:37;;;;;;;18.80;12.10;;;5.00;99.90;;;;;;5040229;28;20242;-91
2023/03/09 03:36:06;;;;;;;19.98;12.32;;;5.00;99.90;;;;;;5023862;28;20247;-91
2023/03/09 03:38:34;;;;;;;20.63;14.70;;;5.00;99.90;;;;;;5040488;28;20180;-91
2023/03/09 03:41:03;;;;;;;19.92;11.85;;;5.00;99.90;;;;;;5024079;28;20200;-92
2023/03/09 03:43:30;;;;;;;19.17;12.13;;;5.00;99.90;;;;;;5040820;28;20200;-91
2023/03/09 03:45:58;;;;;;;22.00;13.10;;;5.00;99.90;;;;;;5016265;28;20191;-92
2023/03/09 03:48:25;;;;;;;22.23;13.13;;;5.00;99.90;;;;;;5043812;28;20574;-92
2023/03/09 03:50:52;;;;;;;22.15;13.05;;;5.00;99.90;;;;;;5043720;28;20172;-92
2023/03/09 03:53:19;;;;;;;20.27;12.98;;;5.00;99.90;;;;;;5060048;28;20298;-91
2023/03/09 03:55:47;;;;;;;22.40;13.63;;;5.00;99.90;;;;;;5026922;28;20350;-91
2023/03/09 03:58:14;;;;;;;20.58;12.80;;;5.00;99.90;;;;;;5043561;28;20530;-93
2023/03/09 04:00:43;;;;;;;21.83;12.93;;;5.00;99.90;;;;;;5059755;28;20249;-89
2023/03/09 04:03:13;;;;;;;24.02;14.45;;;5.00;99.90;;;;;;5043541;28;20179;-92
2023/03/09 04:05:45;;;;;;;22.98;14.52;;;5.00;99.90;;;;;;5044061;28;20172;-91
2023/03/09 04:08:12;;;;;;;19.27;13.10;;;5.00;99.90;;;;;;5043490;28;20214;-91
2023/03/09 04:10:39;;;;;;;24.17;13.63;;;5.00;99.90;;;;;;5042582;28;20207;-92
2023/03/09 04:13:07;;;;;;;21.63;12.95;;;5.00;99.90;;;;;;5043265;28;20699;-92
2023/03/09 04:15:34;;;;;;;20.45;12.82;;;5.00;99.90;;;;;;5026573;28;20219;-88
2023/03/09 04:18:01;;;;;;;21.55;14.10;;;5.00;99.90;;;;;;5052592;28;20225;-91
2023/03/09 04:20:27;;;;;;;21.40;12.65;;;5.00;99.90;;;;;;5039876;28;20522;-91
2023/03/09 04:22:54;;;;;;;25.27;15.00;;;5.00;99.90;;;;;;5057216;28;20176;-91
2023/03/09 04:25:23;;;;;;;23.88;14.48;;;5.00;99.90;;;;;;5034680;28;20438;-92
2023/03/09 04:27:51;;;;;;;24.23;13.45;;;5.00;99.90;;;;;;5058753;28;20298;-91
2023/03/09 04:30:23;;;;;;;23.25;14.18;;;5.00;99.90;;;;;;5024023;28;20181;-91
2023/03/09 04:32:52;;;;;;;26.75;13.80;;;5.00;99.90;;;;;;5058960;28;20282;-91
2023/03/09 04:35:18;;;;;;;26.38;14.63;;;5.00;99.90;;;;;;5025766;28;20321;-91
2023/03/09 04:37:46;;;;;;;25.05;15.00;;;5.00;99.90;;;;;;5043975;28;20176;-91
2023/03/09 04:40:14;;;;;;;22.73;13.70;;;5.00;99.90;;;;;;5022707;28;20216;-90
2023/03/09 04:42:40;;;;;;;23.48;14.38;;;5.00;99.90;;;;;;5037139;28;20201;-91
2023/03/09 04:45:08;;;;;;;21.13;13.57;;;5.00;99.90;;;;;;5042372;28;20212;-91
2023/03/09 04:47:34;;;;;;;22.17;14.07;;;5.00;99.90;;;;;;5042691;28;20190;-91
2023/03/09 04:50:00;;;;;;;23.88;14.20;;;5.00;99.90;;;;;;5042233;28;20184;-91
2023/03/09 04:52:31;;;;;;;21.95;13.60;;;5.00;99.90;;;;;;5058713;28;20180;-91
2023/03/09 04:55:00;;;;;;;21.08;12.32;;;5.00;99.90;;;;;;5076111;28;20208;-92
2023/03/09 04:57:27;;;;;;;23.23;13.77;;;5.00;99.90;;;;;;5058646;28;20207;-92
2023/03/09 04:59:56;;;;;;;26.00;15.20;;;5.00;99.90;;;;;;5025877;28;20185;-91
2023/03/09 05:02:25;;;;;;;24.90;14.15;;;5.00;99.90;;;;;;5025515;28;20249;-93
2023/03/09 05:04:54;;;;;;;22.77;14.27;;;5.00;99.90;;;;;;5075357;28;20172;-92
2023/03/09 05:07:20;;;;;;;24.40;14.75;;;5.00;99.90;;;;;;5042299;28;20575;-91
2023/03/09 05:09:49;;;;;;;24.73;14.52;;;5.00;99.90;;;;;;5041966;28;20519;-92
2023/03/09 05:12:16;;;;;;;23.40;15.25;;;5.00;99.90;;;;;;5025591;28;20276;-91
2023/03/09 05:14:46;;;;;;;23.10;14.30;;;5.00;99.90;;;;;;5041812;28;20219;-91
2023/03/09 05:17:17;;;;;;;24.48;15.13;;;5.00;99.90;;;;;;5025966;28;20184;-91
2023/03/09 05:19:46;;;;;;;23.63;14.57;;;5.00;99.90;;;;;;5041739;28;20183;-91
2023/03/09 05:22:14;;;;;;;23.77;15.27;;;5.00;99.90;;;;;;5041646;28;20184;-92
2023/03/09 05:24:40;;;;;;;25.10;15.50;;;5.00;99.90;;;;;;5025511;28;20270;-92
2023/03/09 05:27:09;;;;;;;25.38;15.27;;;5.00;99.90;;;;;;5058018;28;20212;-93
2023/03/09 05:29:35;;;;;;;22.55;15.00;;;5.00;99.90;;;;;;5041754;28;20190;-92
2023/03/09 05:32:04;;;;;;;22.83;14.23;;;5.00;99.90;;;;;;5025844;28;20230;-92
2023/03/09 05:34:32;;;;;;;22.58;13.70;;;5.00;99.90;;;;;;5041648;28;20326;-92
2023/03/09 05:36:59;;;;;;;27.30;15.82;;;5.00;99.90;;;;;;5025578;28;20191;-91
2023/03/09 05:39:31;;;;;;;24.90;14.65;;;5.00;99.90;;;;;;5024309;28;20184;-92
2023/03/09 05:41:58;;;;;;;21.65;14.20;;;5.00;99.90;;;;;;5038369;28;20551;-92
2023/03/09 05:44:30;;;;;;;25.60;15.45;;;5.00;99.90;;;;;;5038561;28;20299;-94
2023/03/09 05:46:57;;;;;;;24.58;14.35;;;5.00;99.90;;;;;;5054464;28;20533;-92
2023/03/09 05:49:30;;;;;;;22.42;14.00;;;5.00;99.90;;;;;;5058278;28;20230;-91
2023/03/09 05:51:56;;;;;;;22.92;13.23;;;5.00;99.90;;;;;;5056656;28;20219;-91
2023/03/09 05:54:25;;;;;;;26.92;15.77;;;5.00;99.90;;;;;;5053298;28;20203;-93
2023/03/09 05:56:56;;;;;;;27.02;15.50;;;5.00;99.90;;;;;;5058499;28;20156;-94
2023/03/09 05:59:28;;;;;;;25.25;14.95;;;5.00;99.90;;;;;;5042088;28;20192;-91
2023/03/09 06:01:56;;;;;;;21.60;14.32;;;5.00;99.90;;;;;;5057885;28;20554;-93
2023/03/09 06:04:26;;;;;;;24.73;14.27;;;5.00;99.90;;;;;;5057992;28;20215;-93
2023/03/09 06:06:58;;;;;;;25.40;14.93;;;5.00;99.90;;;;;;5026351;28;20207;-93
2023/03/09 06:09:31;;;;;;;24.13;13.85;;;5.00;99.90;;;;;;5041133;28;20183;-91
2023/03/09 06:11:58;;;;;;;25.05;15.85;;;5.00;99.90;;;;;;5025365;28;20188;-92
2023/03/09 06:14:24;;;;;;;26.70;14.88;;;5.10;99.90;;;;;;5025269;28;20200;-93
2023/03/09 06:16:54;;;;;;;22.73;13.50;;;5.00;99.90;;;;;;5041636;28;20179;-92
2023/03/09 06:19:20;;;;;;;26.30;15.65;;;5.00;99.90;;;;;;5057706;28;20278;-93
2023/03/09 06:21:51;;;;;;;27.20;15.50;;;5.00;99.90;;;;;;5057778;28;20191;-93
2023/03/09 06:24:19;;;;;;;24.70;14.75;;;5.00;99.90;;;;;;5041307;28;20203;-89
2023/03/09 06:26:48;;;;;;;26.50;16.52;;;5.00;99.90;;;;;;5058237;28;20208;-95
2023/03/09 06:29:24;;;;;;;26.75;15.60;;;5.00;99.90;;;;;;5026652;28;20207;-96
2023/03/09 06:31:53;;;;;;;25.88;15.50;;;5.00;99.90;;;;;;5043627;28;20640;-96
2023/03/09 06:34:31;;;;;;;28.35;16.50;;;5.00;99.90;;;;;;5044181;28;20208;-95
2023/03/09 06:37:00;;;;;;;24.58;14.63;;;5.00;99.90;;;;;;5044025;28;20212;-95
2023/03/09 06:39:27;;;;;;;27.25;15.70;;;5.00;99.90;;;;;;5044926;28;20181;-95
2023/03/09 06:41:55;;;;;;;27.55;16.60;;;5.00;99.90;;;;;;5026795;28;20204;-96
2023/03/09 06:44:36;;;;;;;28.08;16.98;;;5.00;99.90;;;;;;5011121;28;20169;-96
2023/03/09 06:47:07;;;;;;;27.17;15.52;;;5.00;99.90;;;;;;5041906;28;20176;-95
2023/03/09 06:49:33;;;;;;;27.55;14.98;;;5.00;99.90;;;;;;5009497;28;20303;-96
2023/03/09 06:52:07;;;;;;;25.40;15.20;;;5.00;99.90;;;;;;5042770;28;20810;-96
2023/03/09 06:54:34;;;;;;;27.63;16.63;;;5.00;99.90;;;;;;5037000;28;20674;-96
2023/03/09 06:57:13;;;;;;;27.33;16.15;;;5.00;99.90;;;;;;5026523;28;20177;-96
2023/03/09 06:59:40;;;;;;;26.05;15.57;;;5.00;99.90;;;;;;5025998;28;20181;-95
2023/03/09 07:02:06;;;;;;;25.90;15.90;;;5.00;99.90;;;;;;5048290;28;20184;-96
2023/03/09 07:04:42;;;;;;;25.10;14.20;;;5.00;99.90;;;;;;5076059;22;20224;-72
2023/03/09 07:07:12;;;;;;;26.67;14.75;;;5.00;99.90;;;;;;5045902;28;20201;-71
2023/03/09 07:09:40;;;;;;;29.40;15.20;;;5.00;99.90;;;;;;5065916;28;20685;-71
2023/03/09 07:12:07;;;;;;;24.35;15.68;;;5.00;99.90;;;;;;5062130;28;20168;-71
2023/03/09 07:14:35;;;;;;;25.35;16.15;;;5.00;99.90;;;;;;5054604;28;20196;-72
2023/03/09 07:17:04;;;;;;;27.15;16.25;;;5.00;99.90;;;;;;5021216;28;20184;-71
2023/03/09 07:19:33;;;;;;;27.35;15.85;;;5.00;99.90;;;;;;5057301;28;20191;-71
2023/03/09 07:21:59;;;;;;;28.33;15.98;;;5.00;99.90;;;;;;5040863;28;20211;-72
2023/03/09 07:24:28;;;;;;;24.30;14.90;;;5.00;99.90;;;;;;5042158;28;20232;-71
2023/03/09 07:26:54;;;;;;;25.50;14.85;;;5.00;99.90;;;;;;5073653;28;20398;-71
2023/03/09 07:29:22;;;;;;;26.73;14.77;;;5.00;99.90;;;;;;5070410;28;20711;-71
2023/03/09 07:31:48;;;;;;;28.08;16.63;;;5.00;99.90;;;;;;5053553;28;20399;-71
2023/03/09 07:34:14;;;;;;;23.77;14.93;;;5.00;99.90;;;;;;5060123;28;20607;-72
2023/03/09 07:36:40;;;;;;;29.60;16.35;;;5.00;99.90;;;;;;5054150;28;20968;-72
2023/03/09 07:39:09;;;;;;;25.75;16.17;;;5.00;99.90;;;;;;5037742;28;20676;-72
2023/03/09 07:41:35;;;;;;;25.88;15.43;;;5.00;99.90;;;;;;5056842;28;20178;-71
2023/03/09 07:44:01;;;;;;;22.40;14.15;;;5.00;99.90;;;;;;5070125;28;20667;-71
2023/03/09 07:46:32;;;;;;;23.98;14.15;;;5.00;99.90;;;;;;5044274;28;20241;-71
2023/03/09 07:49:01;;;;;;;24.35;14.82;;;5.00;99.90;;;;;;5053194;28;20274;-71
2023/03/09 07:51:29;;;;;;;26.15;14.90;;;5.00;99.90;;;;;;5052350;28;20237;-71
2023/03/09 07:53:58;;;;;;;23.52;15.05;;;5.00;99.90;;;;;;5045211;28;20234;-71
2023/03/09 07:56:26;;;;;;;28.05;15.60;;;5.00;99.90;;;;;;5016998;28;20200;-73
2023/03/09 07:58:53;;;;;;;24.17;13.60;;;5.00;99.90;;;;;;5046403;28;20192;-73
2023/03/09 08:01:21;;;;;;;26.77;15.77;;;5.00;99.90;;;;;;5035753;28;20481;-73
2023/03/09 08:03:49;;;;;;;23.50;14.90;;;5.00;99.90;;;;;;5035627;28;20193;-72
2023/03/09 08:06:18;;;;;;;24.10;14.05;;;5.00;99.90;;;;;;5053839;28;20172;-73
2023/03/09 08:08:46;;;;;;;24.90;14.10;;;5.00;99.90;;;;;;5051065;28;20204;-69
2023/03/09 08:11:15;;;;;;;25.60;14.50;;;5.00;99.90;;;;;;5021043;28;20699;-72
2023/03/09 08:13:41;;;;;;;26.38;16.45;;;5.00;99.90;;;;;;5053083;28;20255;-72
2023/03/09 08:16:10;;;;;;;23.70;14.30;;;5.00;99.90;;;;;;5020084;28;20181;-71
2023/03/09 08:18:41;;;;;;;21.88;14.25;;;5.00;99.90;;;;;;5052728;28;20200;-71
2023/03/09 08:21:17;;;;;;;26.35;15.40;;;5.00;99.90;;;;;;5036319;28;20212;-71
2023/03/09 08:23:46;;;;;;;26.00;15.18;;;5.10;99.90;;;;;;5019059;28;20227;-71
2023/03/09 08:26:16;;;;;;;29.27;16.85;;;5.10;99.90;;;;;;5066327;28;21608;-71
2023/03/09 08:28:44;;;;;;;24.63;14.50;;;5.10;99.90;;;;;;5052703;28;20282;-71
2023/03/09 08:31:14;;;;;;;27.25;15.95;;;5.10;99.90;;;;;;5065871;28;20645;-71
2023/03/09 08:33:41;;;;;;;25.65;14.57;;;5.10;99.90;;;;;;5035957;28;20201;-71
2023/03/09 08:36:17;;;;;;;23.33;14.25;;;5.10;99.90;;;;;;5051966;28;20208;-71
2023/03/09 08:38:47;;;;;;;26.17;16.25;;;5.10;99.90;;;;;;5020366;28;20622;-70
2023/03/09 08:41:14;;;;;;;26.98;16.02;;;5.10;99.90;;;;;;5035485;28;20180;-71
2023/03/09 08:43:40;;;;;;;28.35;16.55;;;5.10;99.90;;;;;;5051990;28;20172;-71
2023/03/09 08:46:09;;;;;;;22.63;14.50;;;5.10;99.90;;;;;;5051938;28;20601;-71
2023/03/09 08:48:35;;;;;;;27.33;15.02;;;5.10;99.90;;;;;;5052048;28;20200;-71
2023/03/09 08:51:05;;;;;;;22.15;13.32;;;5.10;99.90;;;;;;5035287;28;20169;-70
2023/03/09 08:53:35;;;;;;;25.02;14.98;;;5.10;99.90;;;;;;5047979;28;20185;-70
2023/03/09 08:56:12;;;;;;;23.80;13.45;;;5.10;99.90;;;;;;5051693;28;20196;-71
2023/03/09 08:58:39;;;;;;;25.77;15.82;;;5.10;99.90;;;;;;5035071;28;20204;-70
2023/03/09 09:01:08;;;;;;;28.45;15.43;;;5.10;99.90;;;;;;5052511;28;20228;-71
2023/03/09 09:03:35;;;;;;;26.35;14.80;;;5.10;99.90;;;;;;5051694;28;20173;-70
2023/03/09 09:06:12;;;;;;;27.13;15.25;;;5.10;99.90;;;;;;5051467;28;20210;-71
2023/03/09 09:08:39;;;;;;;24.42;14.10;;;5.10;99.90;;;;;;5050755;28;20197;-71
2023/03/09 09:11:13;;;;;;;26.77;15.13;;;5.10;99.90;;;;;;5018341;28;20190;-70
2023/03/09 09:13:39;;;;;;;25.55;15.73;;;5.10;99.90;;;;;;5034942;28;20188;-71
2023/03/09 09:16:10;;;;;;;21.75;13.95;;;5.20;99.90;;;;;;5051530;28;20211;-71
2023/03/09 09:18:37;;;;;;;22.92;13.15;;;5.20;99.90;;;;;;5069408;28;20212;-71
2023/03/09 09:21:10;;;;;;;26.08;14.00;;;5.20;99.90;;;;;;5071622;28;20168;-71
2023/03/09 09:23:40;;;;;;;25.05;14.50;;;5.20;99.90;;;;;;5054273;28;20326;-71
2023/03/09 09:26:07;;;;;;;27.08;15.65;;;5.20;99.90;;;;;;5034689;28;20208;-71
2023/03/09 09:28:33;;;;;;;20.27;12.73;;;5.20;99.90;;;;;;5051335;28;20654;-71
2023/03/09 09:31:01;;;;;;;24.67;13.60;;;5.20;99.90;;;;;;5034106;28;20287;-70
2023/03/09 09:33:32;;;;;;;23.17;14.43;;;5.20;99.90;;;;;;5051497;28;20165;-74
2023/03/09 09:36:04;;;;;;;25.30;15.18;;;5.20;99.90;;;;;;5018779;28;20193;-73
2023/03/09 09:38:36;;;;;;;25.10;14.77;;;5.20;99.90;;;;;;5034937;28;20215;-73
2023/03/09 09:41:07;;;;;;;24.20;14.82;;;5.20;99.90;;;;;;5051211;28;20204;-72
2023/03/09 09:43:34;;;;;;;22.33;14.82;;;5.20;99.90;;;;;;5051392;28;20211;-71
2023/03/09 09:46:02;;;;;;;26.17;15.75;;;5.20;99.90;;;;;;5051298;28;20907;-71
2023/03/09 09:48:30;;;;;;;25.40;14.77;;;5.20;99.90;;;;;;5048704;28;20926;-71
2023/03/09 09:51:08;;;;;;;23.70;15.15;;;5.20;99.90;;;;;;5032682;28;20177;-72
2023/03/09 09:53:53;;;;;;;28.08;13.60;;;5.20;99.90;;;;;;5049217;28;20183;-72
2023/03/09 09:56:23;;;;;;;23.35;13.45;;;5.20;99.90;;;;;;5049535;28;20177;-72
2023/03/09 09:58:54;;;;;;;24.73;14.73;;;5.20;99.90;;;;;;5033073;28;20227;-72
2023/03/09 10:01:39;;;;;;;24.17;15.02;;;5.20;99.90;;;;;;5054072;28;20187;-72
2023/03/09 10:04:14;;;;;;;21.85;13.68;;;5.20;99.90;;;;;;5038205;28;20200;-72
2023/03/09 10:06:42;;;;;;;23.58;15.30;;;5.20;99.90;;;;;;5054810;28;20187;-72
2023/03/09 10:09:23;;;;;;;26.27;14.82;;;5.30;99.90;;;;;;5037998;28;20193;-72
2023/03/09 10:11:56;;;;;;;27.33;14.50;;;5.20;99.90;;;;;;5054542;28;20203;-72
2023/03/09 10:14:36;;;;;;;30.23;15.82;;;5.30;99.90;;;;;;5054733;28;20204;-72
2023/03/09 10:17:24;;;;;;;27.27;15.02;;;5.30;99.90;;;;;;5038277;28;20637;-72
2023/03/09 10:19:51;;;;;;;31.85;17.08;;;5.30;99.90;;;;;;5054372;28;20215;-72
2023/03/09 10:22:26;;;;;;;30.48;16.63;;;5.30;99.90;;;;;;5054529;28;20188;-72
2023/03/09 10:24:55;;;;;;;27.70;16.58;;;5.30;99.90;;;;;;5055692;28;20635;-72
2023/03/09 10:27:36;;;;;;;26.98;15.20;;;5.30;99.90;;;;;;5054311;28;20275;-72
2023/03/09 10:30:21;;;;;;;28.73;17.08;;;5.30;99.90;;;;;;5037797;28;20176;-72
2023/03/09 10:32:57;;;;;;;27.17;15.35;;;5.30;99.90;;;;;;5055411;28;20206;-72
2023/03/09 10:35:42;;;;;;;29.65;16.65;;;5.30;99.90;;;;;;5055124;28;20193;-72
2023/03/09 10:38:19;;;;;;;32.10;17.23;;;5.30;99.90;;;;;;5020201;28;20205;-72
2023/03/09 10:40:52;;;;;;;30.90;17.00;;;5.30;99.90;;;;;;5035599;28;20523;-72
2023/03/09 10:43:26;;;;;;;29.45;17.17;;;5.30;99.90;;;;;;5035430;28;20164;-71
2023/03/09 10:45:54;;;;;;;29.50;16.52;;;5.30;99.90;;;;;;5034228;28;20208;-72
2023/03/09 10:48:20;;;;;;;35.45;17.85;;;5.30;99.90;;;;;;5035306;28;20566;-72
2023/03/09 10:51:01;;;;;;;30.80;17.20;;;5.40;99.90;;;;;;5017519;28;20205;-72
2023/03/09 10:53:41;;;;;;;34.80;17.90;;;5.40;99.90;;;;;;5067114;28;20432;-72
2023/03/09 10:56:20;;;;;;;31.85;18.92;;;5.40;99.90;;;;;;5053491;28;20302;-72
2023/03/09 10:59:07;;;;;;;28.42;16.25;;;5.40;99.90;;;;;;5054950;28;20192;-72
2023/03/09 11:01:38;;;;;;;31.83;17.90;;;5.40;99.90;;;;;;5037376;28;20206;-72
2023/03/09 11:04:24;;;;;;;31.50;17.85;;;5.40;99.90;;;;;;5020791;28;20187;-72
2023/03/09 11:06:54;;;;;;;35.00;18.67;;;5.40;99.90;;;;;;5054932;28;20197;-72
2023/03/09 11:09:28;;;;;;;39.83;20.20;;;5.40;99.90;;;;;;5053641;28;20193;-72
2023/03/09 11:12:21;;;;;;;33.50;18.08;;;5.40;99.90;;;;;;5052738;28;20169;-72
2023/03/09 11:14:54;;;;;;;36.53;19.05;;;5.50;99.90;;;;;;5020443;28;20330;-72
2023/03/09 11:17:41;;;;;;;36.08;18.67;;;5.50;99.90;;;;;;5053695;28;20165;-72
2023/03/09 11:20:37;;;;;;;33.53;18.38;;;5.50;99.90;;;;;;5020480;28;20165;-72
2023/03/09 11:23:28;;;;;;;33.20;18.90;;;5.50;99.90;;;;;;5042610;28;20575;-72
2023/03/09 11:26:13;;;;;;;34.50;19.33;;;5.50;99.90;;;;;;5054890;28;20275;-72
2023/03/09 11:28:43;;;;;;;33.95;20.60;;;5.50;99.90;;;;;;5036634;28;20606;-72
2023/03/09 11:31:16;;;;;;;33.60;18.92;;;5.50;99.90;;;;;;5036887;28;20275;-72
2023/03/09 11:33:46;;;;;;;35.10;18.67;;;5.50;99.90;;;;;;5036638;28;20774;-72
2023/03/09 11:36:21;;;;;;;35.63;19.20;;;5.50;99.90;;;;;;5053021;28;20244;-72
2023/03/09 11:38:47;;;;;;;34.42;18.42;;;5.50;99.90;;;;;;5031579;28;20212;-72
2023/03/09 11:41:24;;;;;;;36.75;19.10;;;5.50;99.90;;;;;;5033132;28;20195;-72
2023/03/09 11:44:13;;;;;;;36.22;18.58;;;5.50;99.90;;;;;;5034382;28;20632;-72
2023/03/09 11:46:43;;;;;;;34.80;19.25;;;5.50;99.90;;;;;;5044629;28;20229;-72
2023/03/09 11:49:23;;;;;;;37.35;20.15;;;5.60;99.90;;;;;;5036614;28;20670;-72
2023/03/09 11:51:51;;;;;;;35.95;18.73;;;5.60;99.90;;;;;;5052882;28;20173;-73
2023/03/09 11:54:20;;;;;;;36.97;20.05;;;5.60;99.90;;;;;;5016407;28;20190;-72
2023/03/09 11:56:48;;;;;;;35.92;19.67;;;5.60;99.90;;;;;;5016662;28;20580;-72
2023/03/09 11:59:36;;;;;;;41.60;20.55;;;5.60;99.90;;;;;;5033848;28;20613;-72
2023/03/09 12:02:11;;;;;;;33.70;18.65;;;5.60;99.90;;;;;;5016202;28;20305;-72
2023/03/09 12:04:37;;;;;;;37.35;19.65;;;5.60;99.90;;;;;;5032601;28;20194;-72
2023/03/09 12:07:22;;;;;;;39.13;20.20;;;5.60;99.90;;;;;;5016323;28;20216;-72
2023/03/09 12:10:03;;;;;;;38.38;19.10;;;5.60;99.90;;;;;;5044547;28;20201;-72
2023/03/09 12:12:42;;;;;;;35.83;19.63;;;5.60;99.90;;;;;;5052405;28;20177;-72
2023/03/09 12:16:00;;;;;;;38.55;18.52;;;5.60;99.90;;;;;;5035965;28;20217;-72
2023/03/09 12:18:30;;;;;;;36.65;20.10;;;5.70;99.90;;;;;;5033300;28;20220;-71
2023/03/09 12:21:02;;;;;;;36.03;19.50;;;5.70;99.90;;;;;;5051674;28;20291;-72
2023/03/09 12:23:48;;;;;;;32.90;18.15;;;5.70;99.90;;;;;;5035748;28;20195;-72
2023/03/09 12:26:30;;;;;;;33.30;18.60;;;5.70;99.90;;;;;;5035609;28;20185;-72
2023/03/09 12:29:21;;;;;;;32.97;19.92;;;5.70;99.90;;;;;;5051753;28;20212;-72
2023/03/09 12:32:25;;;;;;;34.63;18.45;;;5.70;99.90;;;;;;5052221;28;20514;-72
2023/03/09 12:34:54;;;;;;;33.00;17.92;;;5.70;99.90;;;;;;5051925;28;20677;-72
2023/03/09 12:37:38;;;;;;;34.30;18.73;;;5.70;99.90;;;;;;5064743;28;20198;-72
2023/03/09 12:40:16;;;;;;;34.13;17.75;;;5.70;99.90;;;;;;5045655;28;20183;-72
2023/03/09 12:42:45;;;;;;;33.20;18.67;;;5.70;99.90;;;;;;5051752;28;20223;-72
2023/03/09 12:45:14;;;;;;;26.42;16.75;;;5.70;99.90;;;;;;5051681;28;20202;-72
2023/03/09 12:47:45;;;;;;;32.90;17.63;;;5.70;99.90;;;;;;5051498;28;20210;-72
2023/03/09 12:50:45;;;;;;;29.67;16.83;;;5.70;99.90;;;;;;5035850;28;20197;-72
2023/03/09 12:53:17;;;;;;;24.88;15.95;;;5.70;99.90;;;;;;5051389;28;20181;-72
2023/03/09 12:55:53;;;;;;;32.40;17.30;;;5.80;99.90;;;;;;5034975;28;20205;-73
2023/03/09 12:58:21;;;;;;;31.63;16.42;;;5.80;99.90;;;;;;5035043;28;20546;-72